createdAt,value
2023-12-07T00:01:38.975Z,93.43
2023-12-07T00:04:09.135Z,93.46
2023-12-07T00:06:38.884Z,93.40
2023-12-07T00:09:08.425Z,93.57
2023-12-07T00:11:38.136Z,93.54
2023-12-07T00:14:07.601Z,93.66
2023-12-07T00:16:37.048Z,93.52
2023-12-07T00:19:07.593Z,93.55
2023-12-07T00:21:37.006Z,93.60
2023-12-07T00:24:08.352Z,93.71
2023-12-07T00:26:39.468Z,93.85
2023-12-07T00:29:10.807Z,93.90
2023-12-07T00:31:40.776Z,93.93
2023-12-07T00:34:11.295Z,93.73
2023-12-07T00:36:42.128Z,93.79
2023-12-07T00:39:12.230Z,93.92
2023-12-07T00:41:41.865Z,93.84
2023-12-07T00:44:11.989Z,93.98
2023-12-07T00:46:45.554Z,94.00
2023-12-07T00:49:15.374Z,93.92
2023-12-07T00:51:45.579Z,94.17
2023-12-07T00:54:15.721Z,94.14
2023-12-07T00:56:45.712Z,94.16
2023-12-07T00:59:16.014Z,94.15
2023-12-07T01:01:45.797Z,94.20
2023-12-07T01:04:16.417Z,94.19
2023-12-07T01:06:49.847Z,94.20
2023-12-07T01:09:19.674Z,94.32
2023-12-07T01:11:50.169Z,94.22
2023-12-07T01:14:20.420Z,94.16
2023-12-07T01:16:50.492Z,94.12
2023-12-07T01:19:20.107Z,94.08
2023-12-07T01:21:49.748Z,94.22
2023-12-07T01:24:21.183Z,94.22
2023-12-07T01:26:50.786Z,94.27
2023-12-07T01:29:21.497Z,94.19
2023-12-07T01:31:51.124Z,94.08
2023-12-07T01:34:21.120Z,94.01
2023-12-07T01:36:51.535Z,93.98
2023-12-07T01:39:23.897Z,93.75
2023-12-07T01:41:53.456Z,93.60
2023-12-07T01:44:22.978Z,93.66
2023-12-07T01:46:52.914Z,93.74
2023-12-07T01:49:23.152Z,93.89
2023-12-07T01:51:53.170Z,93.87
2023-12-07T01:54:22.678Z,93.82
2023-12-07T01:56:53.470Z,93.86
2023-12-07T01:59:23.640Z,93.96
2023-12-07T02:01:54.308Z,93.96
2023-12-07T02:04:23.961Z,93.99
2023-12-07T02:06:57.731Z,94.16
2023-12-07T02:09:27.273Z,94.32
2023-12-07T02:11:57.251Z,94.25
2023-12-07T02:14:27.585Z,94.38
2023-12-07T02:17:10.180Z,94.38
2023-12-07T02:20:20.779Z,94.25
2023-12-07T02:22:56.510Z,94.18
2023-12-07T02:25:37.769Z,94.05
2023-12-07T02:28:07.592Z,94.05
2023-12-07T02:30:37.452Z,94.12
2023-12-07T02:33:08.095Z,94.24
2023-12-07T02:35:41.743Z,94.38
2023-12-07T02:38:11.914Z,94.36
2023-12-07T02:40:42.383Z,94.57
2023-12-07T02:43:12.676Z,94.58
2023-12-07T02:45:43.148Z,94.69
2023-12-07T02:48:13.027Z,94.70
2023-12-07T02:50:42.673Z,94.65
2023-12-07T02:53:12.530Z,94.62
2023-12-07T02:55:42.337Z,94.57
2023-12-07T02:58:11.957Z,94.58
2023-12-07T03:00:41.619Z,94.58
2023-12-07T03:03:11.083Z,94.52
2023-12-07T03:05:40.785Z,94.36
2023-12-07T03:08:10.613Z,94.36
2023-12-07T03:10:40.270Z,94.27
2023-12-07T03:13:09.926Z,94.43
2023-12-07T03:15:39.420Z,94.46
2023-12-07T03:18:10.646Z,94.45
2023-12-07T03:20:40.268Z,94.34
2023-12-07T03:23:09.761Z,94.22
2023-12-07T03:25:39.495Z,94.28
2023-12-07T03:28:09.075Z,94.20
2023-12-07T03:30:40.954Z,94.18
2023-12-07T03:33:11.518Z,94.03
2023-12-07T03:35:42.537Z,93.86
2023-12-07T03:38:13.046Z,93.83
2023-12-07T03:40:43.216Z,93.65
2023-12-07T03:43:13.715Z,93.80
2023-12-07T03:45:46.348Z,93.73
2023-12-07T03:48:16.383Z,93.78
2023-12-07T03:50:46.058Z,93.74
2023-12-07T03:53:15.785Z,93.65
2023-12-07T03:55:45.886Z,93.55
2023-12-07T03:58:15.601Z,93.60
2023-12-07T04:00:47.591Z,93.62
2023-12-07T04:03:17.460Z,93.59
2023-12-07T04:05:51.114Z,93.50
2023-12-07T04:08:22.753Z,93.42
2023-12-07T04:10:52.594Z,93.48
2023-12-07T04:13:23.035Z,93.48
2023-12-07T04:15:52.931Z,93.30
2023-12-07T04:18:22.721Z,93.39
2023-12-07T04:20:54.101Z,93.29
2023-12-07T04:23:24.671Z,93.35
2023-12-07T04:25:54.376Z,93.22
2023-12-07T04:28:24.133Z,93.24
2023-12-07T04:30:54.167Z,93.28
2023-12-07T04:33:24.019Z,93.32
2023-12-07T04:35:53.750Z,93.28
2023-12-07T04:38:23.483Z,93.16
2023-12-07T04:40:53.072Z,93.11
2023-12-07T04:43:23.560Z,93.24
2023-12-07T04:45:53.526Z,93.34
2023-12-07T04:48:23.138Z,93.29
2023-12-07T04:50:59.470Z,93.21
2023-12-07T04:53:34.409Z,93.12
2023-12-07T04:56:04.158Z,93.24
2023-12-07T04:58:33.659Z,93.07
2023-12-07T05:01:04.189Z,93.10
2023-12-07T05:03:33.831Z,93.19
2023-12-07T05:06:04.107Z,93.33
2023-12-07T05:08:33.657Z,93.34
2023-12-07T05:11:03.273Z,93.46
2023-12-07T05:13:35.174Z,93.37
2023-12-07T05:16:05.269Z,93.65
2023-12-07T05:18:35.549Z,93.52
2023-12-07T05:21:05.961Z,93.41
2023-12-07T05:23:39.178Z,93.54
2023-12-07T05:26:09.832Z,93.79
2023-12-07T05:28:40.011Z,93.72
2023-12-07T05:31:09.907Z,93.62
2023-12-07T05:33:39.627Z,93.65
2023-12-07T05:36:10.174Z,93.59
2023-12-07T05:38:40.042Z,93.74
2023-12-07T05:41:10.711Z,93.68
2023-12-07T05:43:45.793Z,93.59
2023-12-07T05:46:15.488Z,93.58
2023-12-07T05:48:45.190Z,93.61
2023-12-07T05:51:17.914Z,93.50
2023-12-07T05:53:48.985Z,93.53
2023-12-07T05:56:22.315Z,93.53
2023-12-07T05:58:51.906Z,93.45
2023-12-07T06:01:21.681Z,93.52
2023-12-07T06:03:51.788Z,93.65
2023-12-07T06:06:23.133Z,93.65
2023-12-07T06:08:57.246Z,93.72
2023-12-07T06:11:27.649Z,93.93
2023-12-07T06:14:03.245Z,94.18
2023-12-07T06:16:35.218Z,93.91
2023-12-07T06:19:08.056Z,93.79
2023-12-07T06:21:38.243Z,93.65
2023-12-07T06:24:08.543Z,93.59
2023-12-07T06:26:38.275Z,93.43
2023-12-07T06:29:08.800Z,93.24
2023-12-07T06:31:44.696Z,93.29
2023-12-07T06:34:14.608Z,93.53
2023-12-07T06:36:45.895Z,93.63
2023-12-07T06:39:15.836Z,93.62
2023-12-07T06:41:48.340Z,93.72
2023-12-07T06:44:20.723Z,93.68
2023-12-07T06:46:51.527Z,93.57
2023-12-07T06:49:21.496Z,93.59
2023-12-07T06:51:51.174Z,93.70
2023-12-07T06:54:20.751Z,93.67
2023-12-07T06:56:50.379Z,93.67
2023-12-07T06:59:20.286Z,93.84
2023-12-07T07:01:50.254Z,93.77
2023-12-07T07:04:21.000Z,93.62
2023-12-07T07:06:52.501Z,93.61
2023-12-07T07:09:25.410Z,93.57
2023-12-07T07:12:00.953Z,93.50
2023-12-07T07:14:30.994Z,93.44
2023-12-07T07:17:02.444Z,93.48
2023-12-07T07:19:32.832Z,93.59
2023-12-07T07:22:03.764Z,93.51
2023-12-07T07:24:33.555Z,93.45
2023-12-07T07:27:04.120Z,93.51
2023-12-07T07:29:33.773Z,93.41
2023-12-07T07:32:20.955Z,93.55
2023-12-07T07:34:57.683Z,93.56
2023-12-07T07:37:28.043Z,93.60
2023-12-07T07:40:06.914Z,93.61
2023-12-07T07:42:36.644Z,93.39
2023-12-07T07:45:10.767Z,93.26
2023-12-07T07:47:40.843Z,93.25
2023-12-07T07:50:12.539Z,93.52
2023-12-07T07:52:42.339Z,93.49
2023-12-07T07:55:13.704Z,93.39
2023-12-07T07:57:44.501Z,93.24
2023-12-07T08:00:16.387Z,93.09
2023-12-07T08:02:48.921Z,93.05
2023-12-07T08:05:22.253Z,93.33
2023-12-07T08:07:52.940Z,93.31
2023-12-07T08:10:27.148Z,93.48
2023-12-07T08:12:57.453Z,93.22
2023-12-07T08:15:27.730Z,93.17
2023-12-07T08:17:58.067Z,93.18
2023-12-07T08:20:27.954Z,93.05
2023-12-07T08:22:57.624Z,93.01
2023-12-07T08:25:27.372Z,93.00
2023-12-07T08:27:57.062Z,93.14
2023-12-07T08:30:26.590Z,93.19
2023-12-07T08:32:58.332Z,92.87
2023-12-07T08:35:27.951Z,92.44
2023-12-07T08:37:57.850Z,92.53
2023-12-07T08:40:27.814Z,92.72
2023-12-07T08:42:58.283Z,92.78
2023-12-07T08:45:28.519Z,92.93
2023-12-07T08:47:59.655Z,93.26
2023-12-07T08:50:30.053Z,93.10
2023-12-07T08:53:05.195Z,93.11
2023-12-07T08:55:36.516Z,93.07
2023-12-07T08:58:06.411Z,93.22
2023-12-07T09:00:36.201Z,93.51
2023-12-07T09:03:09.545Z,93.53
2023-12-07T09:05:42.340Z,93.33
2023-12-07T09:08:12.108Z,93.06
2023-12-07T09:10:41.648Z,92.98
2023-12-07T09:13:13.576Z,92.81
2023-12-07T09:15:46.127Z,92.79
2023-12-07T09:18:16.478Z,92.90
2023-12-07T09:20:47.553Z,92.91
2023-12-07T09:23:20.261Z,93.04
2023-12-07T09:25:50.182Z,93.04
2023-12-07T09:28:21.782Z,92.84
2023-12-07T09:30:51.825Z,92.76
2023-12-07T09:33:22.218Z,92.35
2023-12-07T09:35:52.745Z,92.15
2023-12-07T09:38:22.626Z,92.04
2023-12-07T09:40:56.526Z,92.03
2023-12-07T09:43:27.116Z,92.28
2023-12-07T09:45:59.482Z,92.39
2023-12-07T09:48:29.873Z,92.50
2023-12-07T09:51:01.913Z,92.64
2023-12-07T09:53:36.041Z,92.42
2023-12-07T09:56:06.514Z,92.07
2023-12-07T09:58:41.208Z,92.37
2023-12-07T10:01:15.326Z,92.34
2023-12-07T10:03:48.861Z,92.33
2023-12-07T10:06:22.924Z,92.26
2023-12-07T10:09:04.697Z,92.59
2023-12-07T10:11:36.151Z,92.46
2023-12-07T10:14:08.991Z,92.04
2023-12-07T10:16:39.371Z,91.83
2023-12-07T10:19:29.575Z,91.75
2023-12-07T10:22:03.633Z,91.84
2023-12-07T10:24:35.361Z,91.73
2023-12-07T10:27:09.190Z,91.87
2023-12-07T10:29:41.697Z,92.14
2023-12-07T10:32:14.525Z,92.03
2023-12-07T10:34:49.024Z,92.03
2023-12-07T10:37:21.029Z,91.43
2023-12-07T10:39:51.084Z,91.13
2023-12-07T10:42:38.518Z,91.26
2023-12-07T10:45:15.994Z,91.39
2023-12-07T10:47:46.174Z,91.55
2023-12-07T10:50:25.608Z,91.58
2023-12-07T10:52:58.613Z,91.41
2023-12-07T10:55:32.696Z,91.05
2023-12-07T10:58:04.456Z,91.11
2023-12-07T11:00:41.048Z,90.83
2023-12-07T11:03:32.823Z,91.19
2023-12-07T11:06:37.109Z,91.17
2023-12-07T11:09:29.355Z,91.27
2023-12-07T11:12:15.379Z,91.11
2023-12-07T11:14:46.219Z,90.88
2023-12-07T11:17:20.022Z,90.97
2023-12-07T11:19:50.353Z,91.01
2023-12-07T11:22:32.653Z,91.22
2023-12-07T11:25:07.151Z,91.29
2023-12-07T11:27:39.404Z,91.02
2023-12-07T11:30:12.627Z,91.08
2023-12-07T11:32:44.753Z,91.01
2023-12-07T11:35:16.587Z,91.22
2023-12-07T11:38:10.820Z,91.33
2023-12-07T11:40:44.167Z,91.11
2023-12-07T11:44:21.314Z,91.03
2023-12-07T11:49:36.517Z,91.28
2023-12-07T11:53:45.997Z,91.44
2023-12-07T11:56:23.259Z,91.42
2023-12-07T11:58:57.628Z,91.52
2023-12-07T12:01:32.920Z,91.35
2023-12-07T12:04:07.276Z,91.47
2023-12-07T12:06:40.168Z,91.62
2023-12-07T12:09:26.773Z,91.32
2023-12-07T12:12:03.721Z,91.16
2023-12-07T12:14:51.720Z,91.38
2023-12-07T12:17:36.885Z,91.39
2023-12-07T12:20:25.965Z,91.25
2023-12-07T12:22:57.650Z,91.40
2023-12-07T12:25:31.971Z,91.25
2023-12-07T12:28:06.978Z,91.49
2023-12-07T12:30:40.902Z,91.39
2023-12-07T12:33:17.158Z,91.44
2023-12-07T12:36:12.453Z,91.57
2023-12-07T12:38:54.519Z,91.64
2023-12-07T12:41:34.336Z,91.61
2023-12-07T12:54:56.706Z,91.62
2023-12-07T12:59:41.167Z,91.96
2023-12-07T13:04:41.384Z,91.86
2023-12-07T13:08:59.306Z,91.88
2023-12-07T13:13:25.156Z,91.80
2023-12-07T13:17:45.871Z,91.80
2023-12-07T13:20:17.151Z,92.09
2023-12-07T13:22:49.643Z,91.94
2023-12-07T13:25:21.371Z,91.92
2023-12-07T13:27:51.975Z,91.88
2023-12-07T13:30:22.342Z,91.87
2023-12-07T13:32:52.209Z,92.11
2023-12-07T13:35:22.159Z,92.09
2023-12-07T13:37:51.833Z,92.00
2023-12-07T13:40:21.464Z,91.90
2023-12-07T13:42:51.217Z,91.86
2023-12-07T13:45:21.178Z,91.96
2023-12-07T13:47:51.055Z,91.96
2023-12-07T13:50:25.055Z,91.86
2023-12-07T13:52:55.160Z,91.81
2023-12-07T13:55:25.874Z,91.85
2023-12-07T13:57:58.360Z,91.80
2023-12-07T14:00:29.269Z,91.92
2023-12-07T14:03:04.182Z,91.89
2023-12-07T14:05:36.771Z,91.93
2023-12-07T14:08:09.774Z,91.75
2023-12-07T14:10:39.648Z,91.77
2023-12-07T14:13:10.456Z,91.76
2023-12-07T14:15:44.918Z,91.77
2023-12-07T14:18:16.060Z,91.86
2023-12-07T14:20:56.702Z,92.00
2023-12-07T14:23:45.249Z,92.02
2023-12-07T14:26:21.964Z,91.93
2023-12-07T14:28:51.958Z,91.75
2023-12-07T14:31:22.234Z,91.70
2023-12-07T14:33:53.029Z,91.82
2023-12-07T14:36:24.447Z,91.82
2023-12-07T14:38:54.705Z,91.80
2023-12-07T14:41:28.896Z,91.81
2023-12-07T14:43:59.141Z,91.91
2023-12-07T14:46:30.339Z,92.07
2023-12-07T14:49:00.544Z,91.98
2023-12-07T14:51:31.606Z,91.92
2023-12-07T14:54:01.397Z,91.85
2023-12-07T14:56:35.295Z,91.68
2023-12-07T14:59:06.076Z,91.73
2023-12-07T15:01:35.878Z,91.80
2023-12-07T15:04:07.783Z,91.68
2023-12-07T15:06:42.401Z,91.58
2023-12-07T15:09:16.007Z,91.63
2023-12-07T15:11:46.909Z,91.88
2023-12-07T15:14:29.268Z,92.06
2023-12-07T15:17:04.017Z,92.12
2023-12-07T15:19:37.982Z,91.96
2023-12-07T15:22:10.203Z,92.13
2023-12-07T15:24:40.947Z,92.28
2023-12-07T15:27:11.322Z,92.12
2023-12-07T15:29:41.814Z,92.19
2023-12-07T15:32:11.814Z,92.17
2023-12-07T15:34:43.408Z,92.22
2023-12-07T15:37:14.597Z,92.11
2023-12-07T15:39:45.538Z,92.05
2023-12-07T15:42:17.810Z,91.99
2023-12-07T15:44:50.175Z,91.92
2023-12-07T15:47:20.892Z,91.65
2023-12-07T15:49:50.459Z,91.67
2023-12-07T15:52:23.321Z,91.84
2023-12-07T15:54:56.501Z,91.85
2023-12-07T15:57:26.547Z,91.79
2023-12-07T15:59:56.505Z,91.75
2023-12-07T16:02:27.249Z,91.85
2023-12-07T16:04:57.044Z,91.86
2023-12-07T16:07:27.107Z,91.88
2023-12-07T16:09:57.849Z,91.78
2023-12-07T16:12:28.605Z,91.82
2023-12-07T16:14:58.280Z,91.90
2023-12-07T16:17:28.310Z,91.87
2023-12-07T16:20:00.998Z,91.74
2023-12-07T16:22:30.957Z,91.70
2023-12-07T16:25:03.438Z,91.52
2023-12-07T16:27:33.191Z,91.52
2023-12-07T16:30:03.969Z,91.57
2023-12-07T16:32:34.029Z,91.53
2023-12-07T16:35:07.891Z,91.62
2023-12-07T16:37:37.400Z,91.58
2023-12-07T16:40:12.121Z,91.56
2023-12-07T16:42:43.181Z,91.62
2023-12-07T16:45:13.768Z,91.56
2023-12-07T16:47:43.654Z,91.65
2023-12-07T16:50:14.015Z,91.62
2023-12-07T16:52:52.101Z,91.72
2023-12-07T16:55:27.238Z,91.83
2023-12-07T16:57:56.792Z,91.77
2023-12-07T17:00:27.879Z,91.73
2023-12-07T17:02:58.556Z,91.76
2023-12-07T17:05:30.672Z,91.84
2023-12-07T17:08:02.575Z,91.87
2023-12-07T17:10:37.646Z,91.73
2023-12-07T17:13:08.425Z,91.86
2023-12-07T17:15:39.865Z,91.96
2023-12-07T17:18:10.896Z,91.99
2023-12-07T17:20:43.372Z,91.98
2023-12-07T17:23:17.019Z,92.09
2023-12-07T17:25:51.107Z,92.16
2023-12-07T17:28:24.085Z,92.01
2023-12-07T17:33:41.553Z,92.09
2023-12-07T17:36:16.328Z,92.07
2023-12-07T17:38:52.906Z,92.05
2023-12-07T17:41:26.036Z,92.09
2023-12-07T17:43:57.409Z,92.10
2023-12-07T17:46:31.496Z,92.08
2023-12-07T17:49:05.762Z,92.19
2023-12-07T17:51:36.277Z,92.19
2023-12-07T17:54:10.233Z,92.19
2023-12-07T17:56:45.004Z,91.98
2023-12-07T17:59:15.366Z,92.00
2023-12-07T18:01:44.943Z,91.98
2023-12-07T18:04:15.598Z,92.13
2023-12-07T18:06:45.747Z,92.27
2023-12-07T18:09:17.818Z,92.33
2023-12-07T18:11:48.004Z,92.27
2023-12-07T18:14:17.730Z,92.22
2023-12-07T18:16:48.511Z,92.25
2023-12-07T18:19:19.488Z,92.21
2023-12-07T18:21:49.376Z,92.12
2023-12-07T18:24:19.799Z,92.18
2023-12-07T18:26:52.392Z,92.32
2023-12-07T18:29:23.585Z,92.25
2023-12-07T18:31:53.522Z,92.32
2023-12-07T18:34:23.315Z,92.42
2023-12-07T18:36:55.182Z,92.42
2023-12-07T18:39:26.793Z,92.39
2023-12-07T18:42:03.022Z,92.26
2023-12-07T18:44:32.895Z,92.31
2023-12-07T18:47:03.648Z,92.31
2023-12-07T18:49:34.698Z,92.45
2023-12-07T18:52:07.398Z,92.39
2023-12-07T18:54:40.747Z,92.44
2023-12-07T18:57:10.585Z,92.38
2023-12-07T18:59:40.553Z,92.34
2023-12-07T19:02:10.411Z,92.27
2023-12-07T19:04:44.190Z,92.31
2023-12-07T19:07:15.869Z,92.30
2023-12-07T19:09:45.945Z,92.27
2023-12-07T19:12:15.861Z,92.19
2023-12-07T19:14:46.043Z,92.15
2023-12-07T19:17:17.131Z,92.22
2023-12-07T19:19:47.176Z,92.18
2023-12-07T19:22:17.383Z,92.18
2023-12-07T19:24:46.848Z,92.17
2023-12-07T19:27:17.139Z,92.12
2023-12-07T19:29:50.113Z,92.12
2023-12-07T19:32:19.674Z,92.15
2023-12-07T19:34:49.427Z,92.05
2023-12-07T19:37:19.338Z,92.03
2023-12-07T19:39:52.053Z,92.03
2023-12-07T19:42:23.177Z,92.02
2023-12-07T19:44:56.372Z,92.08
2023-12-07T19:47:27.216Z,91.99
2023-12-07T19:50:00.773Z,91.91
2023-12-07T19:52:32.324Z,91.97
2023-12-07T19:55:07.193Z,91.96
2023-12-07T19:57:44.461Z,91.90
2023-12-07T20:00:17.291Z,91.98
2023-12-07T20:02:48.209Z,91.91
2023-12-07T20:05:20.426Z,91.95
2023-12-07T20:07:56.781Z,91.92
2023-12-07T20:10:26.268Z,91.93
2023-12-07T20:12:58.159Z,91.91
2023-12-07T20:15:27.725Z,91.99
2023-12-07T20:17:58.698Z,92.10
2023-12-07T20:20:28.635Z,92.05
2023-12-07T20:23:00.239Z,92.02
2023-12-07T20:25:36.783Z,92.07
2023-12-07T20:28:08.744Z,92.02
2023-12-07T20:30:43.566Z,92.03
2023-12-07T20:33:13.866Z,91.91
2023-12-07T20:35:44.148Z,91.95
2023-12-07T20:38:18.191Z,91.92
2023-12-07T20:40:48.515Z,91.80
2023-12-07T20:43:19.348Z,91.77
2023-12-07T20:45:53.908Z,91.72
2023-12-07T20:48:23.971Z,91.83
2023-12-07T20:50:53.704Z,91.81
2023-12-07T20:53:23.923Z,91.74
2023-12-07T20:56:50.702Z,91.69
2023-12-07T20:59:22.704Z,91.86
2023-12-07T21:01:52.332Z,91.83
2023-12-07T21:04:24.314Z,91.73
2023-12-07T21:06:54.081Z,91.67
2023-12-07T21:09:24.212Z,91.70
2023-12-07T21:11:54.227Z,91.69
2023-12-07T21:14:23.972Z,91.73
2023-12-07T21:16:54.102Z,91.80
2023-12-07T21:19:58.113Z,91.69
2023-12-07T21:22:29.180Z,91.70
2023-12-07T21:24:59.119Z,91.65
2023-12-07T21:27:30.752Z,91.73
2023-12-07T21:30:00.973Z,91.64
2023-12-07T21:32:31.336Z,91.60
2023-12-07T21:35:01.012Z,91.63
2023-12-07T21:37:33.424Z,91.51
2023-12-07T21:40:04.998Z,91.63
2023-12-07T21:42:34.921Z,91.65
2023-12-07T21:45:05.636Z,91.52
2023-12-07T21:47:37.625Z,91.54
2023-12-07T21:50:07.838Z,91.43
2023-12-07T21:52:37.768Z,91.66
2023-12-07T21:55:08.185Z,91.58
2023-12-07T21:57:37.769Z,91.60
2023-12-07T22:00:09.279Z,91.65
2023-12-07T22:02:45.407Z,91.59
2023-12-07T22:05:15.128Z,91.62
2023-12-07T22:07:45.301Z,91.60
2023-12-07T22:10:22.930Z,91.58
2023-12-07T22:12:59.074Z,91.42
2023-12-07T22:15:28.795Z,91.55
2023-12-07T22:17:59.570Z,91.54
2023-12-07T22:20:29.675Z,91.61
2023-12-07T22:22:59.476Z,91.62
2023-12-07T22:25:29.888Z,91.83
2023-12-07T22:28:00.263Z,91.79
2023-12-07T22:30:30.406Z,91.72
2023-12-07T22:33:00.733Z,91.73
2023-12-07T22:35:30.635Z,91.77
2023-12-07T22:38:01.449Z,91.82
2023-12-07T22:40:31.351Z,91.87
2023-12-07T22:43:01.246Z,91.95
2023-12-07T22:45:33.718Z,91.96
2023-12-07T22:48:04.001Z,92.15
2023-12-07T22:50:36.256Z,92.09
2023-12-07T22:53:05.995Z,92.06
2023-12-07T22:55:38.756Z,92.11
2023-12-07T22:58:09.475Z,92.17
2023-12-07T23:00:39.717Z,92.23
2023-12-07T23:03:09.220Z,92.20
2023-12-07T23:05:38.981Z,92.27
2023-12-07T23:08:08.734Z,92.36
2023-12-07T23:10:40.108Z,92.40
2023-12-07T23:13:10.003Z,92.51
2023-12-07T23:15:42.049Z,92.42
2023-12-07T23:18:11.756Z,92.41
2023-12-07T23:20:41.398Z,92.44
2023-12-07T23:23:10.903Z,92.32
2023-12-07T23:25:40.676Z,92.34
2023-12-07T23:28:10.261Z,92.23
2023-12-07T23:30:39.913Z,92.23
2023-12-07T23:33:09.771Z,92.13
2023-12-07T23:35:39.367Z,91.95
2023-12-07T23:38:09.112Z,91.84
2023-12-07T23:40:38.600Z,91.91
2023-12-07T23:43:08.068Z,91.81
2023-12-07T23:45:38.187Z,91.67
2023-12-07T23:48:07.814Z,91.61
2023-12-07T23:50:37.846Z,91.69
2023-12-07T23:53:07.469Z,91.57
2023-12-07T23:55:37.611Z,91.34
2023-12-07T23:58:07.843Z,91.25
